Hovedside
METAR-TAF:

METAR-TAF

Lufthavner :

Bagdad, Irak

breddegrad: 33-15-45N, lengdegrad: 44-14-04E, høyde over havet: 35 m

Gjeldene værobservasjon

Denne rapporten ble laget for 29 minutter siden, klokken 20:00 UTC
Vind 4 kt fra Sør
Temperatur 34°C
Luftfuktighet 25%
Trykk 996 hPa
Sikt 10 km eller mer
ingen skyer under 1500 m og ingen bygeskyer

METAR: ORBI 132000Z 17004KT CAVOK 34/11 Q0996 NOSIG

Tid: 23:29 (20:29 UTC)

Varsel

Denne rapporten ble laget for 4 timer og 29 minutter siden, klokken 16:00 UTC
Varsel gyldig fra 13. klokken 18 UTC til 14. klokken 18 UTC
Vind 6 kt fra Nordvest
Sikt: 8000 m

TAF: ORBI 131600Z 1318/1418 32006KT 8000 NSC

Værobservasjoner og værvarsel for over 4000 flyplasser (METAR- og TAF-rapporter).

Tilgjengelige stasjoner er representert av de røde og gule prikkene på kartet.

Hold musepekeren over prikken for å se navnet på stasjonen.

Klikk så for å se værobservasjoner og -varsler.

For å forandre kartet kan du klikke på den grønne knappen med svart kryss for å zoome inn, på den grønne knappen med strek for å zoome ut, eller på de grønne pilene for å se tilstøtende kart.


METAR-TAF: